Time;durP1;ratioP1;P1;durP2;ratioP2;P2;SDS_P1;SDS_P2;PMS_P1;PMS_P2;Temp;Humidity;BMP_temperature;BMP_pressure;BME280_temperature;BME280_humidity;BME280_pressure;Samples;Min_cycle;Max_cycle;Signal;HPM_P1;HPM_P2
2020/12/12 00:00:44;;;;;;;71.30;42.53;;;;;;;;;;5121871;27;20180;-65
2020/12/12 00:03:10;;;;;;;71.90;43.20;;;;;;;;;;5122363;27;20035;-65
2020/12/12 00:05:36;;;;;;;71.57;44.23;;;;;;;;;;5123676;27;20031;-65
2020/12/12 00:08:03;;;;;;;70.20;40.97;;;;;;;;;;5121977;27;20023;-65
2020/12/12 00:10:29;;;;;;;66.90;39.37;;;;;;;;;;5125053;27;20031;-65
2020/12/12 00:12:55;;;;;;;65.53;39.13;;;;;;;;;;5119142;27;20030;-65
2020/12/12 00:15:21;;;;;;;61.47;39.10;;;;;;;;;;5125253;27;20035;-65
2020/12/12 00:17:47;;;;;;;65.40;38.50;;;;;;;;;;5113731;27;20124;-65
2020/12/12 00:20:13;;;;;;;65.67;38.80;;;;;;;;;;5122062;27;20048;-65
2020/12/12 00:22:39;;;;;;;64.67;39.40;;;;;;;;;;5122125;27;20064;-65
2020/12/12 00:25:08;;;;;;;60.13;37.03;;;;;;;;;;5128440;27;20038;-65
2020/12/12 00:27:34;;;;;;;62.20;37.38;;;;;;;;;;5115185;27;20019;-65
2020/12/12 00:30:00;;;;;;;61.27;38.70;;;;;;;;;;5121176;27;20031;-64
2020/12/12 00:32:26;;;;;;;63.27;38.20;;;;;;;;;;5117938;27;20032;-65
2020/12/12 00:34:52;;;;;;;62.07;36.80;;;;;;;;;;5123705;27;20031;-64
2020/12/12 00:37:18;;;;;;;62.37;37.33;;;;;;;;;;5116720;27;20387;-64
2020/12/12 00:39:45;;;;;;;59.43;35.93;;;;;;;;;;5120918;27;20008;-65
2020/12/12 00:42:11;;;;;;;52.37;33.77;;;;;;;;;;5118291;27;20037;-64
2020/12/12 00:44:37;;;;;;;62.80;38.73;;;;;;;;;;5120945;27;20051;-64
2020/12/12 00:47:04;;;;;;;61.83;37.87;;;;;;;;;;5119611;27;20019;-64
2020/12/12 00:49:30;;;;;;;61.80;37.37;;;;;;;;;;5119777;27;20519;-64
2020/12/12 00:51:56;;;;;;;60.03;37.23;;;;;;;;;;5124178;27;20019;-65
2020/12/12 00:54:22;;;;;;;61.77;36.37;;;;;;;;;;5117839;27;20043;-64
2020/12/12 00:56:48;;;;;;;64.43;39.07;;;;;;;;;;5124891;27;20076;-64
2020/12/12 00:59:14;;;;;;;63.03;38.03;;;;;;;;;;5102511;27;20054;-64
2020/12/12 01:01:40;;;;;;;62.90;38.17;;;;;;;;;;5122129;27;20122;-64
2020/12/12 01:04:06;;;;;;;59.20;36.73;;;;;;;;;;5120538;27;20126;-65
2020/12/12 01:06:32;;;;;;;65.07;39.83;;;;;;;;;;5117289;27;20015;-65
2020/12/12 01:08:58;;;;;;;64.23;38.10;;;;;;;;;;5119700;27;20035;-65
2020/12/12 01:11:25;;;;;;;60.90;39.17;;;;;;;;;;5127010;27;20118;-65
2020/12/12 01:13:51;;;;;;;67.23;39.03;;;;;;;;;;5118057;27;20050;-65
2020/12/12 01:16:17;;;;;;;57.17;36.27;;;;;;;;;;5124987;27;20035;-65
2020/12/12 01:18:43;;;;;;;55.23;35.73;;;;;;;;;;5120088;27;20035;-64
2020/12/12 01:21:09;;;;;;;57.30;37.53;;;;;;;;;;5119268;27;20091;-64
2020/12/12 01:23:35;;;;;;;52.07;36.40;;;;;;;;;;5120724;27;20030;-64
2020/12/12 01:26:01;;;;;;;64.17;38.00;;;;;;;;;;5114724;27;20038;-64
2020/12/12 01:28:27;;;;;;;62.93;36.23;;;;;;;;;;5121516;27;20061;-64
2020/12/12 01:30:53;;;;;;;56.20;36.47;;;;;;;;;;5098919;27;20032;-65
2020/12/12 01:33:23;;;;;;;59.17;37.93;;;;;;;;;;5121551;27;20027;-64
2020/12/12 01:35:49;;;;;;;59.07;36.03;;;;;;;;;;5119849;27;20026;-64
2020/12/12 01:38:15;;;;;;;62.37;38.13;;;;;;;;;;5117508;27;20020;-65
2020/12/12 01:40:42;;;;;;;60.53;37.63;;;;;;;;;;5120540;27;20354;-64
2020/12/12 01:43:11;;;;;;;58.50;36.60;;;;;;;;;;5118712;27;20051;-64
2020/12/12 01:45:38;;;;;;;52.20;34.20;;;;;;;;;;5118136;27;20020;-65
2020/12/12 01:48:05;;;;;;;53.07;36.00;;;;;;;;;;5118732;27;20034;-65
2020/12/12 01:50:31;;;;;;;54.67;35.83;;;;;;;;;;5116533;27;20039;-64
2020/12/12 01:52:58;;;;;;;56.97;37.13;;;;;;;;;;5120405;27;20024;-64
2020/12/12 01:55:24;;;;;;;54.53;35.40;;;;;;;;;;5121205;27;20069;-64
2020/12/12 01:57:53;;;;;;;59.57;36.43;;;;;;;;;;5121297;27;20023;-65
2020/12/12 02:00:20;;;;;;;53.67;34.87;;;;;;;;;;5115322;27;20048;-65
2020/12/12 02:02:48;;;;;;;58.80;37.97;;;;;;;;;;5120746;27;20042;-64
2020/12/12 02:05:38;;;;;;;57.20;37.50;;;;;;;;;;5120109;27;20024;-65
2020/12/12 02:08:05;;;;;;;60.57;37.80;;;;;;;;;;5118950;27;20524;-64
2020/12/12 02:10:31;;;;;;;58.43;37.87;;;;;;;;;;5113441;27;20062;-65
2020/12/12 02:12:57;;;;;;;63.03;38.43;;;;;;;;;;5121997;27;20031;-64
2020/12/12 02:15:23;;;;;;;58.50;36.77;;;;;;;;;;5120379;27;20031;-64
2020/12/12 02:17:49;;;;;;;57.83;37.80;;;;;;;;;;5118951;27;20138;-64
2020/12/12 02:20:15;;;;;;;58.67;38.07;;;;;;;;;;5122198;27;20111;-64
2020/12/12 02:22:41;;;;;;;57.93;37.23;;;;;;;;;;5121902;27;20052;-64
2020/12/12 02:25:07;;;;;;;53.90;36.73;;;;;;;;;;5118857;27;20074;-64
2020/12/12 02:27:33;;;;;;;61.37;38.43;;;;;;;;;;5104204;27;20051;-64
2020/12/12 02:29:59;;;;;;;57.80;38.27;;;;;;;;;;5121176;27;20070;-64
2020/12/12 02:32:25;;;;;;;55.17;36.43;;;;;;;;;;5119023;27;20023;-64
2020/12/12 02:34:51;;;;;;;55.63;38.60;;;;;;;;;;5126593;27;20052;-64
2020/12/12 02:37:17;;;;;;;59.37;37.77;;;;;;;;;;5113903;27;20035;-64
2020/12/12 02:39:43;;;;;;;52.27;37.27;;;;;;;;;;5117345;27;20042;-64
2020/12/12 02:42:09;;;;;;;52.60;37.80;;;;;;;;;;5116909;27;20031;-65
2020/12/12 02:44:35;;;;;;;51.97;35.53;;;;;;;;;;5122728;27;20412;-64
2020/12/12 02:47:01;;;;;;;54.23;37.23;;;;;;;;;;5102748;27;20518;-64
2020/12/12 02:49:27;;;;;;;59.07;38.07;;;;;;;;;;5121427;27;20038;-64
2020/12/12 02:51:53;;;;;;;57.50;37.73;;;;;;;;;;5115788;27;20475;-64
2020/12/12 02:54:19;;;;;;;51.73;36.03;;;;;;;;;;5118717;27;20069;-64
2020/12/12 02:56:45;;;;;;;49.63;34.17;;;;;;;;;;5119845;27;20129;-64
2020/12/12 02:59:11;;;;;;;53.27;36.70;;;;;;;;;;5116526;27;20123;-64
2020/12/12 03:01:41;;;;;;;51.23;35.27;;;;;;;;;;5126224;27;20046;-64
2020/12/12 03:04:07;;;;;;;54.97;36.97;;;;;;;;;;5114862;27;20196;-64
2020/12/12 03:06:33;;;;;;;51.33;36.27;;;;;;;;;;5121390;27;20383;-64
2020/12/12 03:08:59;;;;;;;56.40;37.93;;;;;;;;;;5121394;27;20042;-64
2020/12/12 03:11:25;;;;;;;51.40;35.97;;;;;;;;;;5122071;27;20045;-64
2020/12/12 03:13:51;;;;;;;54.93;38.03;;;;;;;;;;5122757;27;20114;-64
2020/12/12 03:16:17;;;;;;;51.57;35.37;;;;;;;;;;5123331;27;20027;-64
2020/12/12 03:18:43;;;;;;;55.03;37.60;;;;;;;;;;5123326;27;20031;-64
2020/12/12 03:21:09;;;;;;;57.70;38.07;;;;;;;;;;5124239;27;20437;-63
2020/12/12 03:23:35;;;;;;;52.20;37.30;;;;;;;;;;5123106;27;22691;-64
2020/12/12 03:26:01;;;;;;;54.43;38.73;;;;;;;;;;5123946;27;20023;-64
2020/12/12 03:28:27;;;;;;;50.53;36.40;;;;;;;;;;5126797;27;20446;-64
2020/12/12 03:30:53;;;;;;;57.10;38.17;;;;;;;;;;5117089;27;20114;-64
2020/12/12 03:33:19;;;;;;;57.20;38.73;;;;;;;;;;5124923;27;20122;-64
2020/12/12 03:35:45;;;;;;;56.73;38.67;;;;;;;;;;5119274;27;20031;-64
2020/12/12 03:38:12;;;;;;;56.73;38.33;;;;;;;;;;5122304;27;20024;-64
2020/12/12 03:40:38;;;;;;;56.60;39.37;;;;;;;;;;5119222;27;20145;-64
2020/12/12 03:43:04;;;;;;;52.67;37.03;;;;;;;;;;5122364;27;20106;-64
2020/12/12 03:45:30;;;;;;;56.43;37.13;;;;;;;;;;5118596;27;20026;-64
2020/12/12 03:47:56;;;;;;;55.77;38.23;;;;;;;;;;5120358;27;20488;-64
2020/12/12 03:50:27;;;;;;;58.90;39.17;;;;;;;;;;5118929;27;20028;-64
2020/12/12 03:52:54;;;;;;;57.10;38.00;;;;;;;;;;5120992;27;20027;-64
2020/12/12 03:55:20;;;;;;;52.77;37.43;;;;;;;;;;5118513;27;20016;-63
2020/12/12 03:57:46;;;;;;;52.30;36.90;;;;;;;;;;5126616;27;20038;-64
2020/12/12 04:00:12;;;;;;;57.13;38.70;;;;;;;;;;5117825;27;20039;-64
2020/12/12 04:02:54;;;;;;;56.40;38.17;;;;;;;;;;5097521;27;20380;-64
2020/12/12 04:05:20;;;;;;;55.53;39.93;;;;;;;;;;5092979;28;20028;-64
2020/12/12 04:07:46;;;;;;;55.63;40.00;;;;;;;;;;5096718;28;20426;-63
2020/12/12 04:10:12;;;;;;;56.53;37.80;;;;;;;;;;5093821;28;20055;-64
2020/12/12 04:12:38;;;;;;;58.47;40.60;;;;;;;;;;5101251;28;20382;-64
2020/12/12 04:15:04;;;;;;;57.20;39.10;;;;;;;;;;5098527;28;20024;-64
2020/12/12 04:17:30;;;;;;;54.43;38.07;;;;;;;;;;5098476;28;20047;-64
2020/12/12 04:19:56;;;;;;;58.33;37.77;;;;;;;;;;5096999;28;20032;-63
2020/12/12 04:22:22;;;;;;;60.30;41.33;;;;;;;;;;5099015;28;20068;-64
2020/12/12 04:24:48;;;;;;;58.97;37.80;;;;;;;;;;5101808;28;20367;-64
2020/12/12 04:27:14;;;;;;;59.47;38.70;;;;;;;;;;5092346;28;20106;-64
2020/12/12 04:29:40;;;;;;;56.53;37.23;;;;;;;;;;5099307;28;20111;-65
2020/12/12 04:32:06;;;;;;;55.30;37.53;;;;;;;;;;5096125;28;20115;-64
2020/12/12 04:34:32;;;;;;;55.87;37.60;;;;;;;;;;5097317;28;20035;-64
2020/12/12 04:36:59;;;;;;;58.00;37.73;;;;;;;;;;5097331;28;20035;-64
2020/12/12 04:39:25;;;;;;;55.40;36.37;;;;;;;;;;5096358;28;20036;-64
2020/12/12 04:41:52;;;;;;;53.93;36.93;;;;;;;;;;5093646;28;20039;-64
2020/12/12 04:44:18;;;;;;;56.00;35.10;;;;;;;;;;5095705;28;20024;-64
2020/12/12 04:46:44;;;;;;;55.50;36.07;;;;;;;;;;5091236;28;20028;-64
2020/12/12 04:49:10;;;;;;;56.90;36.30;;;;;;;;;;5093828;28;20038;-64
2020/12/12 04:51:37;;;;;;;59.00;36.83;;;;;;;;;;5097815;28;20024;-64
2020/12/12 04:54:03;;;;;;;55.73;34.93;;;;;;;;;;5100377;28;20072;-64
2020/12/12 04:56:35;;;;;;;51.77;34.37;;;;;;;;;;5098775;28;20095;-65
2020/12/12 04:59:03;;;;;;;57.20;37.30;;;;;;;;;;5098788;28;20477;-64
2020/12/12 05:01:32;;;;;;;58.20;36.90;;;;;;;;;;5102657;28;20048;-65
2020/12/12 05:03:58;;;;;;;59.17;35.43;;;;;;;;;;5088610;28;20025;-64
2020/12/12 05:06:30;;;;;;;53.57;35.00;;;;;;;;;;5103757;28;20043;-64
2020/12/12 05:08:56;;;;;;;55.47;35.57;;;;;;;;;;5095006;28;20024;-64
2020/12/12 05:11:23;;;;;;;54.30;34.37;;;;;;;;;;5094667;28;20028;-64
2020/12/12 05:13:49;;;;;;;56.70;36.07;;;;;;;;;;5085780;28;20543;-64
2020/12/12 05:16:15;;;;;;;50.40;35.20;;;;;;;;;;5084404;28;20104;-64
2020/12/12 05:18:43;;;;;;;55.27;34.97;;;;;;;;;;5085622;28;20028;-64
2020/12/12 05:21:10;;;;;;;52.47;34.80;;;;;;;;;;5083081;28;20034;-64
2020/12/12 05:23:36;;;;;;;49.67;32.83;;;;;;;;;;5082921;28;20056;-64
2020/12/12 05:26:02;;;;;;;44.83;31.33;;;;;;;;;;5089538;28;20024;-64
2020/12/12 05:28:28;;;;;;;49.30;32.53;;;;;;;;;;5080876;28;20382;-65
2020/12/12 05:30:55;;;;;;;51.47;33.70;;;;;;;;;;5085311;28;20036;-64
2020/12/12 05:33:22;;;;;;;56.87;33.90;;;;;;;;;;5081945;28;20032;-64
2020/12/12 05:35:49;;;;;;;48.70;32.20;;;;;;;;;;5081359;28;20028;-65
2020/12/12 05:38:15;;;;;;;47.00;31.50;;;;;;;;;;5083481;28;20024;-64
2020/12/12 05:40:43;;;;;;;47.87;30.77;;;;;;;;;;5078947;28;20032;-64
2020/12/12 05:43:13;;;;;;;44.47;30.87;;;;;;;;;;5085303;28;20510;-64
2020/12/12 05:45:39;;;;;;;46.37;30.67;;;;;;;;;;5077499;28;20073;-64
2020/12/12 05:48:07;;;;;;;42.13;28.47;;;;;;;;;;5088099;28;20024;-64
2020/12/12 05:50:33;;;;;;;48.47;29.80;;;;;;;;;;5078671;28;20513;-65
2020/12/12 05:52:59;;;;;;;49.83;30.17;;;;;;;;;;5089178;28;20069;-64
2020/12/12 05:55:30;;;;;;;41.87;29.53;;;;;;;;;;5083655;28;21877;-65
2020/12/12 05:57:56;;;;;;;47.27;30.03;;;;;;;;;;5083253;28;20070;-65
2020/12/12 06:00:23;;;;;;;40.30;27.70;;;;;;;;;;5073310;28;20028;-65
2020/12/12 06:02:54;;;;;;;46.50;30.07;;;;;;;;;;5083007;28;20549;-65
2020/12/12 06:05:29;;;;;;;51.27;32.07;;;;;;;;;;5078023;28;20153;-65
2020/12/12 06:07:58;;;;;;;53.30;32.70;;;;;;;;;;5083713;28;20027;-65
2020/12/12 06:10:26;;;;;;;48.47;33.13;;;;;;;;;;5076883;28;20111;-65
2020/12/12 06:12:57;;;;;;;52.17;34.17;;;;;;;;;;5085743;28;20024;-64
2020/12/12 06:15:31;;;;;;;51.87;33.37;;;;;;;;;;5074778;28;20127;-64
2020/12/12 06:18:00;;;;;;;49.50;31.83;;;;;;;;;;5079771;28;20024;-65
2020/12/12 06:20:27;;;;;;;52.50;33.43;;;;;;;;;;5076252;28;20481;-64
2020/12/12 06:22:54;;;;;;;52.53;33.83;;;;;;;;;;5081641;28;20040;-64
2020/12/12 06:25:21;;;;;;;48.50;33.03;;;;;;;;;;5075541;28;20051;-64
2020/12/12 06:27:49;;;;;;;52.67;33.10;;;;;;;;;;5080257;28;20413;-65
2020/12/12 06:30:15;;;;;;;44.87;30.33;;;;;;;;;;5079884;28;20027;-65
2020/12/12 06:32:41;;;;;;;49.83;31.53;;;;;;;;;;5076376;28;20032;-64
2020/12/12 06:35:08;;;;;;;44.33;30.67;;;;;;;;;;5080715;28;20521;-64
2020/12/12 06:37:35;;;;;;;44.63;31.10;;;;;;;;;;5075653;28;20211;-65
2020/12/12 06:40:02;;;;;;;43.83;30.70;;;;;;;;;;5082009;28;20099;-64
2020/12/12 06:45:31;;;;;;;42.60;28.87;;;;;;;;;;5079578;28;20093;-64
2020/12/12 06:47:57;;;;;;;45.77;31.10;;;;;;;;;;5082335;28;20132;-64
2020/12/12 06:50:25;;;;;;;43.00;29.00;;;;;;;;;;5084078;28;20031;-64
2020/12/12 06:52:51;;;;;;;42.90;29.60;;;;;;;;;;5081445;28;20119;-64
2020/12/12 06:55:18;;;;;;;36.73;27.17;;;;;;;;;;5084459;28;20115;-64
2020/12/12 06:57:46;;;;;;;44.50;30.07;;;;;;;;;;5082972;28;20040;-65
2020/12/12 07:00:31;;;;;;;45.87;30.70;;;;;;;;;;5086766;28;20035;-65
2020/12/12 07:03:05;;;;;;;45.25;30.55;;;;;;;;;;5080590;28;20043;-65
2020/12/12 07:05:35;;;;;;;43.53;30.03;;;;;;;;;;5089128;28;20107;-65
2020/12/12 07:08:09;;;;;;;49.23;32.60;;;;;;;;;;5079791;28;20500;-65
2020/12/12 07:10:35;;;;;;;55.43;35.40;;;;;;;;;;5078473;28;20118;-64
2020/12/12 07:13:02;;;;;;;60.33;36.33;;;;;;;;;;5080117;28;20024;-65
2020/12/12 07:15:29;;;;;;;57.77;35.10;;;;;;;;;;5086711;28;20027;-65
2020/12/12 07:17:55;;;;;;;60.67;37.07;;;;;;;;;;5085574;28;20043;-65
2020/12/12 07:20:21;;;;;;;59.23;35.73;;;;;;;;;;5085167;28;20028;-65
2020/12/12 07:22:48;;;;;;;56.87;36.27;;;;;;;;;;5082334;28;20047;-65
2020/12/12 07:25:14;;;;;;;56.37;36.33;;;;;;;;;;5086629;28;20096;-65
2020/12/12 07:27:40;;;;;;;55.63;34.20;;;;;;;;;;5084299;28;20106;-65
2020/12/12 07:30:06;;;;;;;60.63;35.23;;;;;;;;;;5077316;28;20028;-64
2020/12/12 07:32:32;;;;;;;56.57;35.90;;;;;;;;;;5079798;28;20043;-65
2020/12/12 07:34:59;;;;;;;62.40;37.33;;;;;;;;;;5078020;28;20020;-64
2020/12/12 07:37:25;;;;;;;57.50;36.43;;;;;;;;;;5080985;28;20020;-65
2020/12/12 07:39:53;;;;;;;51.07;35.03;;;;;;;;;;5081095;28;20024;-65
2020/12/12 07:42:21;;;;;;;58.53;35.97;;;;;;;;;;5078364;28;20197;-65
2020/12/12 07:45:05;;;;;;;62.10;37.27;;;;;;;;;;5075319;28;20024;-65
2020/12/12 07:47:31;;;;;;;57.60;36.30;;;;;;;;;;5082564;28;20106;-65
2020/12/12 07:50:01;;;;;;;63.63;39.57;;;;;;;;;;5079220;28;20146;-65
2020/12/12 07:52:27;;;;;;;53.50;33.43;;;;;;;;;;5079602;28;20389;-65
2020/12/12 07:55:03;;;;;;;45.40;30.90;;;;;;;;;;5079245;28;20020;-65
2020/12/12 07:57:30;;;;;;;47.67;30.23;;;;;;;;;;5078543;28;20016;-65
2020/12/12 08:00:07;;;;;;;43.83;30.30;;;;;;;;;;5080673;28;20052;-66
2020/12/12 08:02:33;;;;;;;48.10;31.30;;;;;;;;;;5080818;28;20091;-65
2020/12/12 08:05:00;;;;;;;45.43;31.53;;;;;;;;;;5074313;28;20504;-65
2020/12/12 08:07:29;;;;;;;45.17;31.43;;;;;;;;;;5076163;28;20103;-65
2020/12/12 08:09:55;;;;;;;48.73;31.27;;;;;;;;;;5081054;28;20490;-65
2020/12/12 08:12:32;;;;;;;52.53;33.57;;;;;;;;;;5081966;28;20052;-65
2020/12/12 08:15:01;;;;;;;51.23;32.83;;;;;;;;;;5073351;28;20511;-66
2020/12/12 08:17:33;;;;;;;51.87;33.77;;;;;;;;;;5077747;28;20574;-65
2020/12/12 08:19:59;;;;;;;51.67;31.77;;;;;;;;;;5079097;28;20486;-65
2020/12/12 08:22:25;;;;;;;46.67;32.17;;;;;;;;;;5077755;28;20040;-65
2020/12/12 08:24:51;;;;;;;50.27;32.23;;;;;;;;;;5080082;28;20024;-65
2020/12/12 08:27:23;;;;;;;48.80;33.13;;;;;;;;;;5079705;28;20869;-65
2020/12/12 08:29:53;;;;;;;62.73;36.37;;;;;;;;;;5080983;28;20035;-65
2020/12/12 08:32:29;;;;;;;51.97;34.47;;;;;;;;;;5076093;28;20027;-65
2020/12/12 08:35:16;;;;;;;53.23;34.87;;;;;;;;;;5076257;28;20089;-65
2020/12/12 08:37:52;;;;;;;56.33;33.73;;;;;;;;;;5072286;28;20382;-65
2020/12/12 08:40:18;;;;;;;56.53;35.50;;;;;;;;;;5081259;28;20114;-65
2020/12/12 08:43:13;;;;;;;54.73;34.57;;;;;;;;;;5082706;28;20129;-65
2020/12/12 08:45:56;;;;;;;56.33;36.35;;;;;;;;;;5076551;28;20504;-65
2020/12/12 08:48:22;;;;;;;56.03;37.07;;;;;;;;;;5082497;28;20084;-65
2020/12/12 08:50:48;;;;;;;57.33;35.87;;;;;;;;;;5084723;28;20036;-65
2020/12/12 08:53:19;;;;;;;52.90;34.77;;;;;;;;;;5077548;28;20040;-65
2020/12/12 08:55:58;;;;;;;49.73;33.40;;;;;;;;;;5080373;28;20032;-61
2020/12/12 08:58:34;;;;;;;47.60;33.10;;;;;;;;;;5075673;28;20035;-66
2020/12/12 09:01:10;;;;;;;48.47;32.40;;;;;;;;;;5081579;28;20028;-61
2020/12/12 09:03:36;;;;;;;52.73;33.90;;;;;;;;;;5081300;28;20073;-67
2020/12/12 09:06:06;;;;;;;55.07;34.60;;;;;;;;;;5084177;28;20024;-67
2020/12/12 09:08:32;;;;;;;52.13;35.40;;;;;;;;;;5077729;28;20025;-67
2020/12/12 09:11:09;;;;;;;51.90;34.37;;;;;;;;;;5079473;28;20029;-66
2020/12/12 09:13:35;;;;;;;52.93;33.80;;;;;;;;;;5076878;28;20039;-66
2020/12/12 09:16:01;;;;;;;51.53;33.63;;;;;;;;;;5079934;28;20020;-67
2020/12/12 09:18:28;;;;;;;52.93;34.57;;;;;;;;;;5075182;28;20030;-67
2020/12/12 09:20:54;;;;;;;56.77;35.20;;;;;;;;;;5081597;28;20095;-67
2020/12/12 09:23:20;;;;;;;52.00;34.67;;;;;;;;;;5078126;28;20028;-65
2020/12/12 09:25:46;;;;;;;49.43;35.37;;;;;;;;;;5081340;28;20040;-67
2020/12/12 09:28:12;;;;;;;58.03;35.30;;;;;;;;;;5078323;28;20028;-66
2020/12/12 09:30:38;;;;;;;47.63;34.50;;;;;;;;;;5079549;28;20500;-66
2020/12/12 09:33:04;;;;;;;50.67;34.93;;;;;;;;;;5079669;28;20031;-66
2020/12/12 09:35:30;;;;;;;53.53;34.60;;;;;;;;;;5079050;28;20115;-66
2020/12/12 09:37:56;;;;;;;49.67;34.27;;;;;;;;;;5080614;28;20112;-66
2020/12/12 09:40:22;;;;;;;58.43;35.60;;;;;;;;;;5075786;28;20393;-66
2020/12/12 09:42:48;;;;;;;54.37;35.53;;;;;;;;;;5079310;28;20028;-66
2020/12/12 09:45:14;;;;;;;45.40;33.73;;;;;;;;;;5075902;28;20039;-66
2020/12/12 09:47:40;;;;;;;47.13;34.07;;;;;;;;;;5080481;28;20074;-66
2020/12/12 09:50:06;;;;;;;51.10;34.30;;;;;;;;;;5075281;28;20103;-66
2020/12/12 09:52:32;;;;;;;48.80;33.13;;;;;;;;;;5077084;28;20099;-67
2020/12/12 09:54:58;;;;;;;47.97;34.23;;;;;;;;;;5074743;28;20039;-66
2020/12/12 09:57:27;;;;;;;48.90;33.43;;;;;;;;;;5077383;28;20029;-66
2020/12/12 09:59:53;;;;;;;55.27;35.87;;;;;;;;;;5075836;28;20028;-66
2020/12/12 10:02:19;;;;;;;54.43;35.67;;;;;;;;;;5078032;28;20135;-66
2020/12/12 10:04:45;;;;;;;56.80;35.63;;;;;;;;;;5078645;28;20036;-65
2020/12/12 10:07:11;;;;;;;50.70;35.30;;;;;;;;;;5077616;28;20032;-64
2020/12/12 10:09:37;;;;;;;46.43;32.53;;;;;;;;;;5075151;28;20031;-64
2020/12/12 10:12:03;;;;;;;53.27;34.93;;;;;;;;;;5084437;28;20028;-64
2020/12/12 10:14:29;;;;;;;56.07;36.67;;;;;;;;;;5077709;28;20032;-64
2020/12/12 10:16:56;;;;;;;52.00;34.97;;;;;;;;;;5078574;28;20086;-65
2020/12/12 10:19:23;;;;;;;52.83;36.73;;;;;;;;;;5081278;28;20363;-64
2020/12/12 10:21:49;;;;;;;52.43;36.20;;;;;;;;;;5077971;28;20044;-65
2020/12/12 10:24:15;;;;;;;54.73;36.47;;;;;;;;;;5083254;28;20026;-64
2020/12/12 10:26:41;;;;;;;56.73;37.50;;;;;;;;;;5075610;28;20047;-64
2020/12/12 10:29:07;;;;;;;55.17;37.10;;;;;;;;;;5083689;28;20020;-65
2020/12/12 10:31:34;;;;;;;50.70;35.53;;;;;;;;;;5074802;28;20025;-65
2020/12/12 10:33:59;;;;;;;53.80;36.30;;;;;;;;;;5080163;28;20067;-64
2020/12/12 10:36:25;;;;;;;53.83;36.05;;;;;;;;;;5078435;28;20043;-64
2020/12/12 10:38:52;;;;;;;53.95;37.15;;;;;;;;;;5083710;28;20390;-64
2020/12/12 10:41:18;;;;;;;49.80;34.03;;;;;;;;;;5080196;28;20035;-64
2020/12/12 10:43:44;;;;;;;51.37;36.23;;;;;;;;;;5081018;28;20075;-64
2020/12/12 10:46:10;;;;;;;50.17;34.67;;;;;;;;;;5077377;28;20052;-64
2020/12/12 10:48:36;;;;;;;47.20;35.20;;;;;;;;;;5081465;28;20537;-64
2020/12/12 10:51:02;;;;;;;54.20;35.70;;;;;;;;;;5078134;28;20485;-64
2020/12/12 10:53:28;;;;;;;52.27;34.70;;;;;;;;;;5081993;28;20111;-64
2020/12/12 10:55:54;;;;;;;50.17;34.47;;;;;;;;;;5076364;28;20040;-63
2020/12/12 10:58:20;;;;;;;55.30;36.17;;;;;;;;;;5094526;28;20122;-64
2020/12/12 11:00:49;;;;;;;46.60;31.52;;;;;;;;;;5079611;28;20028;-65
2020/12/12 11:03:16;;;;;;;46.63;32.63;;;;;;;;;;5081106;28;20032;-64
2020/12/12 11:05:42;;;;;;;45.85;33.13;;;;;;;;;;5075337;28;20036;-64
2020/12/12 11:08:08;;;;;;;43.90;31.20;;;;;;;;;;5075794;28;20080;-63
2020/12/12 11:10:34;;;;;;;43.97;30.17;;;;;;;;;;5074081;28;20033;-64
2020/12/12 11:13:00;;;;;;;44.72;30.63;;;;;;;;;;5076609;28;20024;-64
2020/12/12 11:15:26;;;;;;;43.13;30.60;;;;;;;;;;5080747;28;20840;-64
2020/12/12 11:17:52;;;;;;;42.63;30.57;;;;;;;;;;5079009;28;20039;-64
2020/12/12 11:20:18;;;;;;;44.22;30.98;;;;;;;;;;5084563;28;20028;-64
2020/12/12 11:22:44;;;;;;;43.08;29.60;;;;;;;;;;5076180;28;20161;-64
2020/12/12 11:25:10;;;;;;;44.60;30.43;;;;;;;;;;5080081;28;20544;-64
2020/12/12 11:27:37;;;;;;;47.28;31.40;;;;;;;;;;5076212;28;20031;-64
2020/12/12 11:30:04;;;;;;;46.00;32.55;;;;;;;;;;5076966;28;20062;-64
2020/12/12 11:32:30;;;;;;;44.25;29.65;;;;;;;;;;5073262;28;20029;-64
2020/12/12 11:35:17;;;;;;;35.55;26.02;;;;;;;;;;5078862;28;20024;-64
2020/12/12 11:47:40;;;;;;;47.85;33.38;;;;;;;;;;5076982;28;20039;-64
2020/12/12 11:50:06;;;;;;;50.10;34.90;;;;;;;;;;5078607;28;20024;-65
2020/12/12 11:52:36;;;;;;;45.40;33.40;;;;;;;;;;5083923;28;20382;-65
2020/12/12 11:55:03;;;;;;;51.45;34.95;;;;;;;;;;5076200;28;20439;-65
2020/12/12 11:57:29;;;;;;;47.72;33.78;;;;;;;;;;5080894;28;20020;-66
2020/12/12 11:59:56;;;;;;;48.58;33.83;;;;;;;;;;5076859;28;20119;-66
2020/12/12 12:02:22;;;;;;;45.90;32.77;;;;;;;;;;5075218;28;20045;-66
2020/12/12 12:04:48;;;;;;;49.53;37.43;;;;;;;;;;5075672;28;20031;-65
2020/12/12 12:07:14;;;;;;;52.60;36.55;;;;;;;;;;5073337;28;20616;-65
2020/12/12 12:09:46;;;;;;;45.60;32.42;;;;;;;;;;5074668;28;20021;-65
2020/12/12 12:12:12;;;;;;;52.70;37.03;;;;;;;;;;5074473;28;20035;-65
2020/12/12 12:14:38;;;;;;;47.40;36.28;;;;;;;;;;5074292;28;20206;-65
2020/12/12 12:17:04;;;;;;;48.30;34.03;;;;;;;;;;5082253;28;20068;-65
2020/12/12 12:19:30;;;;;;;46.35;32.25;;;;;;;;;;5073854;28;20090;-65
2020/12/12 12:21:56;;;;;;;44.75;33.15;;;;;;;;;;5072524;28;20477;-65
2020/12/12 12:24:23;;;;;;;44.67;30.02;;;;;;;;;;5074978;28;20600;-63
2020/12/12 12:26:49;;;;;;;45.83;33.63;;;;;;;;;;5079274;28;20021;-64
2020/12/12 12:29:17;;;;;;;48.10;32.60;;;;;;;;;;5077657;28;20048;-64
2020/12/12 12:31:44;;;;;;;44.97;32.65;;;;;;;;;;5076218;28;20032;-64
2020/12/12 12:34:11;;;;;;;46.70;34.25;;;;;;;;;;5081176;28;20533;-64
2020/12/12 12:36:38;;;;;;;47.40;35.53;;;;;;;;;;5077101;28;20114;-64
2020/12/12 12:39:05;;;;;;;50.63;36.05;;;;;;;;;;5080073;28;20032;-64
2020/12/12 12:41:31;;;;;;;50.80;37.75;;;;;;;;;;5080721;28;20558;-65
2020/12/12 12:44:01;;;;;;;52.22;37.78;;;;;;;;;;5078557;28;20040;-65
2020/12/12 12:46:39;;;;;;;51.95;36.60;;;;;;;;;;5074481;28;20503;-64
2020/12/12 12:49:06;;;;;;;54.63;37.97;;;;;;;;;;5077445;28;20054;-64
2020/12/12 12:51:32;;;;;;;55.20;38.22;;;;;;;;;;5077311;28;20036;-64
2020/12/12 12:53:58;;;;;;;60.75;41.33;;;;;;;;;;5076886;28;20035;-64
2020/12/12 12:56:24;;;;;;;57.70;39.90;;;;;;;;;;5073998;28;20035;-64
2020/12/12 12:58:54;;;;;;;60.50;41.85;;;;;;;;;;5082751;28;20028;-64
2020/12/12 13:01:20;;;;;;;66.47;44.92;;;;;;;;;;5080117;28;20047;-64
2020/12/12 13:03:47;;;;;;;63.10;43.80;;;;;;;;;;5075615;28;20616;-65
2020/12/12 13:06:26;;;;;;;60.97;41.92;;;;;;;;;;5073325;28;20030;-66
2020/12/12 13:08:56;;;;;;;63.85;43.25;;;;;;;;;;5078786;28;20125;-65
2020/12/12 13:11:22;;;;;;;61.90;42.03;;;;;;;;;;5077968;28;20032;-65
2020/12/12 13:13:48;;;;;;;61.55;43.17;;;;;;;;;;5076015;28;20039;-65
2020/12/12 13:16:14;;;;;;;60.50;42.05;;;;;;;;;;5075244;28;20032;-65
2020/12/12 13:18:45;;;;;;;63.87;42.13;;;;;;;;;;5077724;28;20466;-65
2020/12/12 13:21:17;;;;;;;59.13;40.22;;;;;;;;;;5078194;28;20047;-65
2020/12/12 13:23:43;;;;;;;64.30;42.13;;;;;;;;;;5074529;28;20032;-65
2020/12/12 13:26:10;;;;;;;62.67;42.35;;;;;;;;;;5080833;28;20055;-65
2020/12/12 13:31:29;;;;;;;64.33;42.93;;;;;;;;;;5079493;28;20036;-65
2020/12/12 13:33:55;;;;;;;49.35;34.25;;;;;;;;;;5073125;28;20459;-65
2020/12/12 13:36:21;;;;;;;59.97;40.92;;;;;;;;;;5077828;28;20028;-65
2020/12/12 13:38:47;;;;;;;59.22;41.78;;;;;;;;;;5073733;28;20032;-64
2020/12/12 13:41:17;;;;;;;54.08;39.83;;;;;;;;;;5077093;28;20127;-65
2020/12/12 13:43:43;;;;;;;57.77;39.83;;;;;;;;;;5076361;28;20063;-62
2020/12/12 13:46:09;;;;;;;55.78;38.75;;;;;;;;;;5078480;28;20059;-63
2020/12/12 13:48:35;;;;;;;55.58;38.17;;;;;;;;;;5075107;28;20383;-63
2020/12/12 13:51:01;;;;;;;60.28;40.50;;;;;;;;;;5081630;28;20469;-63
2020/12/12 13:53:27;;;;;;;55.42;37.42;;;;;;;;;;5073940;28;20100;-63
2020/12/12 13:55:53;;;;;;;53.25;37.42;;;;;;;;;;5075943;28;20466;-64
2020/12/12 13:58:19;;;;;;;50.53;35.13;;;;;;;;;;5079031;28;22923;-63
2020/12/12 14:00:45;;;;;;;54.70;36.97;;;;;;;;;;5077017;28;20033;-64
2020/12/12 14:03:11;;;;;;;50.60;35.13;;;;;;;;;;5075271;28;20093;-63
2020/12/12 14:05:43;;;;;;;52.67;35.65;;;;;;;;;;5079132;28;20037;-63
2020/12/12 14:08:11;;;;;;;49.92;34.10;;;;;;;;;;5080532;28;20020;-63
2020/12/12 14:19:03;;;;;;;46.38;34.90;;;;;;;;;;5083398;28;20068;-63
2020/12/12 14:23:47;;;;;;;50.00;34.30;;;;;;;;;;5086001;28;20115;-62
2020/12/12 14:26:21;;;;;;;48.65;32.58;;;;;;;;;;5083017;28;20023;-63
2020/12/12 14:28:47;;;;;;;46.67;32.53;;;;;;;;;;5085485;28;20028;-63
2020/12/12 14:31:13;;;;;;;45.97;32.83;;;;;;;;;;5078378;28;20036;-62
2020/12/12 14:33:39;;;;;;;48.38;33.72;;;;;;;;;;5082230;28;20028;-62
2020/12/12 14:36:07;;;;;;;46.03;33.20;;;;;;;;;;5076840;28;20028;-62
2020/12/12 14:38:33;;;;;;;47.92;34.00;;;;;;;;;;5081526;28;20024;-62
2020/12/12 14:40:59;;;;;;;45.97;33.45;;;;;;;;;;5071832;28;20028;-62
2020/12/12 14:43:25;;;;;;;48.80;32.97;;;;;;;;;;5080676;28;20404;-62